Monroe County Airport Bloomington US
ICAO: KBMG
IATA: BMG
Category: Medium
Scheduled Services: No

Elevation: 846 ft
TransAlt. 18000 ft.

Airport Communications:
HULMAN APP/DEP:128.05
ASOS:110.2
CTAF:120.775
GND:121.9
TERRE HAUTE RDO:110.2
BLOOMINGTON TWR:120.775
UNICOM:122.95

KBMG Zoom In..

Runways:

(A) RW 06 length 3798 ft width 100 ft
---- / hdg 64

(B) RW 17 length 6500 ft width 150 ft
---- / hdg 174

(C) RW 24 length 3798 ft width 100 ft
---- / hdg 244

(D) RW 35 length 6500 ft width 150 ft
ILS 108.30 / hdg 354

Location; KBMG
Day. 25 / Time. 11.53 Zulu
* Altimeter: 29.99
* Temperature: 10° c. 50°f.
* Wind from: 330° Speed 03 kn.
Dewpoint: 10° c.
Visibility: 3 Statute Miles.
Clouds: Overcast 2100 ft.
Conditions: Mist.

KBMG 251153Z 33003KT 3SM BR OVC021 10/10 A2999 RMK AO2 SLP155 70008 T01000100 10122 20078 53018


Wind From 330°
Speed 03 kn.

  YouTube Music Video
 
jpsmedia.com for Web Design  worldairports.se 2018   terms of use